createdAt,value
2022-09-28T00:01:16.517Z,3.57
2022-09-28T00:03:43.999Z,4.00
2022-09-28T00:06:12.540Z,3.70
2022-09-28T00:08:39.509Z,4.00
2022-09-28T00:11:11.224Z,4.00
2022-09-28T00:13:38.600Z,4.00
2022-09-28T00:16:09.352Z,3.90
2022-09-28T00:18:36.301Z,4.00
2022-09-28T00:21:19.004Z,3.77
2022-09-28T00:24:04.836Z,3.80
2022-09-28T00:26:33.242Z,3.97
2022-09-28T00:29:02.153Z,3.37
2022-09-28T00:31:39.392Z,3.77
2022-09-28T00:34:09.455Z,3.30
2022-09-28T00:36:36.774Z,3.50
2022-09-28T00:39:08.725Z,3.80
2022-09-28T00:41:36.213Z,3.40
2022-09-28T00:44:34.136Z,3.57
2022-09-28T00:47:18.228Z,4.23
2022-09-28T00:50:10.866Z,3.80
2022-09-28T00:52:48.639Z,3.83
2022-09-28T00:55:22.706Z,3.77
2022-09-28T00:57:55.977Z,3.63
2022-09-28T01:00:22.919Z,3.30
2022-09-28T01:02:50.337Z,4.20
2022-09-28T01:05:18.698Z,3.73
2022-09-28T01:07:47.308Z,4.03
2022-09-28T01:10:14.583Z,4.20
2022-09-28T01:12:41.270Z,4.03
2022-09-28T01:15:08.359Z,4.17
2022-09-28T01:17:51.155Z,3.70
2022-09-28T01:20:27.353Z,3.70
2022-09-28T01:23:13.200Z,4.27
2022-09-28T01:25:42.169Z,4.20
2022-09-28T01:28:15.959Z,3.90
2022-09-28T01:30:48.929Z,3.70
2022-09-28T01:33:30.111Z,3.87
2022-09-28T01:36:11.828Z,3.90
2022-09-28T01:38:51.107Z,4.17
2022-09-28T01:41:19.182Z,3.87
2022-09-28T01:43:51.660Z,4.40
2022-09-28T01:46:32.976Z,4.37
2022-09-28T01:49:07.365Z,4.10
2022-09-28T01:52:01.917Z,4.10
2022-09-28T01:54:35.517Z,4.23
2022-09-28T01:57:31.874Z,3.63
2022-09-28T02:00:07.616Z,4.07
2022-09-28T02:02:54.015Z,3.80
2022-09-28T02:05:22.655Z,3.60
2022-09-28T02:07:59.610Z,3.80
2022-09-28T02:10:45.606Z,4.10
2022-09-28T02:13:28.343Z,3.73
2022-09-28T02:16:04.418Z,4.30
2022-09-28T02:18:31.528Z,4.00
2022-09-28T02:21:14.473Z,4.00
2022-09-28T02:23:51.725Z,4.43
2022-09-28T02:26:24.797Z,4.07
2022-09-28T02:28:51.525Z,3.87
2022-09-28T02:31:18.478Z,4.20
2022-09-28T02:33:47.367Z,4.00
2022-09-28T02:36:14.625Z,4.07
2022-09-28T02:38:41.392Z,3.90
2022-09-28T02:41:13.900Z,4.10
2022-09-28T02:43:58.243Z,3.97
2022-09-28T02:46:37.229Z,3.97
2022-09-28T02:49:22.263Z,4.03
2022-09-28T02:52:16.817Z,3.73
2022-09-28T02:54:59.765Z,4.03
2022-09-28T02:57:44.664Z,3.80
2022-09-28T03:00:18.703Z,3.70
2022-09-28T03:02:51.591Z,4.10
2022-09-28T03:05:28.902Z,4.30
2022-09-28T03:08:06.831Z,3.93
2022-09-28T03:10:57.485Z,3.93
2022-09-28T03:13:26.151Z,4.53
2022-09-28T03:15:52.856Z,4.50
2022-09-28T03:18:19.545Z,4.63
2022-09-28T03:20:47.555Z,4.50
2022-09-28T03:23:25.449Z,4.73
2022-09-28T03:25:52.416Z,4.33
2022-09-28T03:28:19.500Z,4.20
2022-09-28T03:30:46.233Z,4.70
2022-09-28T03:33:13.002Z,4.13
2022-09-28T03:35:39.749Z,3.70
2022-09-28T03:38:06.533Z,4.57
2022-09-28T03:40:33.391Z,4.30
2022-09-28T03:43:03.312Z,4.77
2022-09-28T03:45:30.113Z,5.90
2022-09-28T03:47:56.893Z,6.10
2022-09-28T03:50:23.599Z,7.00
2022-09-28T03:52:50.273Z,6.87
2022-09-28T03:55:17.028Z,6.60
2022-09-28T03:57:43.735Z,5.77
2022-09-28T04:00:11.081Z,5.13
2022-09-28T04:02:37.823Z,5.77
2022-09-28T04:05:04.833Z,6.33
2022-09-28T04:07:31.570Z,6.37
2022-09-28T04:09:58.578Z,6.23
2022-09-28T04:12:25.341Z,5.57
2022-09-28T04:14:52.129Z,5.90
2022-09-28T04:17:18.834Z,5.63
2022-09-28T04:19:45.656Z,5.43
2022-09-28T04:22:12.388Z,4.87
2022-09-28T04:24:39.734Z,4.83
2022-09-28T04:27:25.157Z,4.80
2022-09-28T04:29:51.977Z,5.60
2022-09-28T04:32:18.729Z,5.63
2022-09-28T04:34:45.425Z,5.50
2022-09-28T04:37:12.143Z,6.03
2022-09-28T04:39:42.244Z,6.17
2022-09-28T04:42:11.991Z,6.80
2022-09-28T04:44:38.708Z,7.37
2022-09-28T04:47:05.548Z,6.80
2022-09-28T04:49:32.369Z,7.47
2022-09-28T04:51:59.103Z,7.30
2022-09-28T04:54:25.760Z,6.90
2022-09-28T04:56:53.372Z,6.70
2022-09-28T04:59:20.098Z,6.70
2022-09-28T05:01:47.536Z,6.20
2022-09-28T05:04:14.323Z,7.47
2022-09-28T05:06:41.165Z,7.77
2022-09-28T05:09:09.460Z,7.90
2022-09-28T05:11:36.193Z,8.30
2022-09-28T05:14:02.912Z,8.90
2022-09-28T05:16:31.009Z,8.57
2022-09-28T05:18:57.763Z,8.00
2022-09-28T05:21:26.379Z,7.97
2022-09-28T05:23:56.099Z,7.10
2022-09-28T05:26:23.235Z,7.63
2022-09-28T05:28:50.896Z,8.07
2022-09-28T05:31:17.665Z,8.27
2022-09-28T05:33:44.386Z,8.53
2022-09-28T05:36:11.743Z,9.17
2022-09-28T05:38:38.826Z,9.20
2022-09-28T05:43:41.167Z,7.90
2022-09-28T05:46:08.245Z,7.33
2022-09-28T05:48:35.049Z,7.40
2022-09-28T05:51:01.871Z,8.20
2022-09-28T05:53:28.812Z,7.13
2022-09-28T05:55:59.543Z,6.03
2022-09-28T05:58:27.361Z,6.20
2022-09-28T06:00:58.530Z,6.10
2022-09-28T06:03:27.033Z,6.07
2022-09-28T06:05:54.085Z,5.67
2022-09-28T06:08:21.525Z,6.40
2022-09-28T06:10:48.399Z,6.20
2022-09-28T06:13:15.116Z,6.20
2022-09-28T06:15:43.731Z,5.97
2022-09-28T06:18:14.905Z,5.37
2022-09-28T06:20:42.201Z,5.50
2022-09-28T06:23:10.362Z,5.10
2022-09-28T06:25:37.762Z,4.83
2022-09-28T06:28:13.639Z,4.63
2022-09-28T06:30:41.606Z,5.07
2022-09-28T06:33:12.618Z,4.73
2022-09-28T06:35:40.734Z,4.50
2022-09-28T06:38:07.786Z,5.07
2022-09-28T06:40:34.899Z,4.57
2022-09-28T06:43:15.383Z,4.83
2022-09-28T06:45:43.136Z,4.50
2022-09-28T06:48:11.114Z,5.60
2022-09-28T06:50:40.794Z,5.87
2022-09-28T06:53:12.085Z,4.73
2022-09-28T06:55:43.554Z,4.60
2022-09-28T06:58:12.237Z,4.63
2022-09-28T07:00:40.406Z,4.70
2022-09-28T07:03:11.538Z,4.60
2022-09-28T07:05:45.624Z,4.37
2022-09-28T07:08:12.847Z,4.40
2022-09-28T07:10:45.057Z,4.80
2022-09-28T07:13:33.510Z,4.67
2022-09-28T07:16:01.419Z,4.67
2022-09-28T07:18:29.934Z,4.37
2022-09-28T07:20:57.437Z,4.37
2022-09-28T07:23:26.254Z,4.17
2022-09-28T07:25:53.516Z,4.70
2022-09-28T07:28:21.161Z,5.10
2022-09-28T07:30:48.401Z,4.07
2022-09-28T07:33:17.138Z,4.37
2022-09-28T07:35:51.728Z,4.33
2022-09-28T07:38:18.985Z,4.30
2022-09-28T07:41:04.597Z,4.10
2022-09-28T07:43:32.504Z,4.13
2022-09-28T07:45:59.258Z,4.27
2022-09-28T07:48:26.532Z,3.90
2022-09-28T07:50:56.778Z,4.00
2022-09-28T07:53:25.140Z,4.40
2022-09-28T07:56:03.836Z,4.17
2022-09-28T07:58:32.863Z,5.93
2022-09-28T08:01:02.936Z,4.13
2022-09-28T08:03:29.666Z,3.77
2022-09-28T08:06:00.995Z,3.73
2022-09-28T08:08:30.071Z,4.27
2022-09-28T08:10:57.729Z,4.13
2022-09-28T08:13:27.004Z,4.47
2022-09-28T08:15:54.936Z,3.97
2022-09-28T08:18:23.409Z,3.70
2022-09-28T08:21:11.471Z,4.10
2022-09-28T08:23:38.605Z,4.53
2022-09-28T08:26:05.685Z,4.13
2022-09-28T08:28:34.946Z,3.67
2022-09-28T08:31:01.993Z,4.10
2022-09-28T08:33:29.346Z,3.93
2022-09-28T08:36:00.976Z,3.60
2022-09-28T08:38:29.686Z,3.30
2022-09-28T08:41:17.531Z,4.00
2022-09-28T08:43:58.374Z,3.33
2022-09-28T08:46:30.512Z,3.53
2022-09-28T08:49:30.180Z,3.87
2022-09-28T08:52:23.565Z,3.43
2022-09-28T08:54:54.626Z,3.90
2022-09-28T08:57:29.241Z,3.77
2022-09-28T08:59:59.743Z,3.40
2022-09-28T09:02:36.782Z,3.47
2022-09-28T09:05:06.168Z,3.30
2022-09-28T09:07:51.225Z,3.37
2022-09-28T09:10:34.298Z,3.10
2022-09-28T09:13:15.136Z,3.70
2022-09-28T09:15:56.139Z,3.33
2022-09-28T09:18:37.638Z,3.50
2022-09-28T09:21:33.854Z,3.30
2022-09-28T09:24:13.133Z,3.60
2022-09-28T09:26:40.931Z,3.67
2022-09-28T09:29:11.693Z,3.57
2022-09-28T09:32:16.347Z,3.53
2022-09-28T09:35:20.176Z,3.60
2022-09-28T09:37:58.591Z,3.53
2022-09-28T09:40:46.388Z,3.63
2022-09-28T09:43:40.834Z,3.40
2022-09-28T09:46:44.474Z,3.30
2022-09-28T09:49:22.036Z,3.20
2022-09-28T09:52:02.905Z,3.07
2022-09-28T09:54:51.225Z,3.20
2022-09-28T09:57:25.002Z,2.60
2022-09-28T09:59:52.279Z,2.87
2022-09-28T10:02:28.538Z,2.90
2022-09-28T10:04:59.939Z,2.53
2022-09-28T10:07:42.568Z,3.07
2022-09-28T10:10:15.778Z,2.83
2022-09-28T10:12:42.520Z,2.63
2022-09-28T10:15:15.046Z,3.00
2022-09-28T10:17:42.116Z,3.13
2022-09-28T10:20:13.317Z,2.67
2022-09-28T10:22:40.967Z,2.93
2022-09-28T10:25:09.883Z,2.87
2022-09-28T10:27:41.399Z,3.23
2022-09-28T10:30:10.814Z,2.97
2022-09-28T10:32:40.122Z,2.90
2022-09-28T10:35:19.100Z,2.57
2022-09-28T10:37:56.428Z,2.87
2022-09-28T10:40:31.567Z,2.60
2022-09-28T10:43:07.826Z,2.77
2022-09-28T10:45:38.329Z,2.90
2022-09-28T10:48:15.187Z,2.55
2022-09-28T10:50:42.866Z,2.30
2022-09-28T10:53:20.088Z,2.53
2022-09-28T10:56:02.411Z,2.85
2022-09-28T10:58:41.943Z,2.78
2022-09-28T11:01:13.592Z,2.87
2022-09-28T11:03:52.285Z,2.50
2022-09-28T11:06:30.562Z,2.58
2022-09-28T11:09:01.753Z,2.78
2022-09-28T11:11:29.654Z,2.67
2022-09-28T11:14:01.208Z,2.50
2022-09-28T11:16:36.322Z,2.70
2022-09-28T11:19:29.754Z,2.47
2022-09-28T11:21:56.430Z,2.05
2022-09-28T11:24:26.057Z,1.95
2022-09-28T11:27:00.264Z,1.70
2022-09-28T11:29:39.356Z,2.30
2022-09-28T11:32:06.639Z,1.80
2022-09-28T11:34:58.238Z,2.13
2022-09-28T11:37:31.452Z,2.20
2022-09-28T11:40:25.678Z,2.42
2022-09-28T11:43:16.746Z,2.72
2022-09-28T11:46:27.216Z,2.67
2022-09-28T11:49:08.365Z,2.60
2022-09-28T11:51:39.810Z,2.80
2022-09-28T11:54:18.073Z,2.42
2022-09-28T11:56:49.107Z,2.50
2022-09-28T11:59:31.996Z,2.47
2022-09-28T12:02:15.631Z,2.40
2022-09-28T12:05:01.328Z,2.50
2022-09-28T12:07:36.796Z,2.53
2022-09-28T12:10:11.674Z,2.38
2022-09-28T12:12:47.696Z,1.95
2022-09-28T12:15:19.554Z,2.15
2022-09-28T12:17:56.068Z,2.17
2022-09-28T12:20:45.869Z,1.70
2022-09-28T12:23:33.319Z,1.60
2022-09-28T12:26:03.983Z,1.50
2022-09-28T12:28:42.012Z,1.50
2022-09-28T12:31:25.458Z,1.75
2022-09-28T12:33:52.693Z,1.70
2022-09-28T12:37:02.787Z,1.75
2022-09-28T12:39:58.282Z,1.55
2022-09-28T12:42:53.091Z,2.20
2022-09-28T12:45:27.681Z,2.50
2022-09-28T12:48:08.211Z,2.30
2022-09-28T12:51:09.223Z,2.35
2022-09-28T12:54:34.454Z,2.10
2022-09-28T12:57:29.852Z,2.05
2022-09-28T13:00:11.971Z,2.20
2022-09-28T13:02:53.544Z,2.50
2022-09-28T13:05:58.921Z,2.10
2022-09-28T13:08:58.176Z,2.45
2022-09-28T13:11:45.158Z,2.50
2022-09-28T13:14:45.393Z,2.60
2022-09-28T13:17:21.495Z,2.40
2022-09-28T13:20:31.200Z,2.65
2022-09-28T13:23:10.595Z,3.10
2022-09-28T13:25:42.877Z,3.00
2022-09-28T13:28:11.533Z,3.30
2022-09-28T13:30:40.359Z,3.88
2022-09-28T13:33:08.293Z,4.55
2022-09-28T13:35:35.112Z,4.13
2022-09-28T13:38:17.515Z,3.40
2022-09-28T13:41:06.348Z,4.00
2022-09-28T13:44:10.492Z,3.50
2022-09-28T13:47:00.493Z,3.95
2022-09-28T13:49:30.576Z,3.83
2022-09-28T13:52:09.497Z,4.50
2022-09-28T13:54:54.990Z,5.37
2022-09-28T13:57:43.213Z,5.00
2022-09-28T14:00:26.298Z,4.63
2022-09-28T14:03:11.509Z,4.30
2022-09-28T14:05:46.097Z,2.80
2022-09-28T14:08:33.627Z,2.00
2022-09-28T14:11:25.731Z,2.40
2022-09-28T14:13:59.234Z,4.63
2022-09-28T14:16:28.540Z,6.07
2022-09-28T14:19:16.409Z,4.90
2022-09-28T14:22:19.468Z,2.90
2022-09-28T14:25:08.084Z,2.50
2022-09-28T14:27:46.346Z,2.77
2022-09-28T14:30:12.980Z,2.50
2022-09-28T14:32:52.512Z,5.23
2022-09-28T14:35:40.876Z,4.40
2022-09-28T14:38:35.965Z,4.20
2022-09-28T14:41:12.540Z,3.33
2022-09-28T14:43:45.491Z,2.80
2022-09-28T14:46:15.394Z,2.50
2022-09-28T14:48:55.095Z,2.23
2022-09-28T14:51:24.777Z,2.23
2022-09-28T14:53:52.743Z,2.70
2022-09-28T14:56:20.965Z,2.43
2022-09-28T14:58:55.125Z,2.33
2022-09-28T15:01:24.749Z,2.40
2022-09-28T15:03:57.049Z,3.73
2022-09-28T15:06:25.289Z,5.00
2022-09-28T15:08:52.065Z,6.23
2022-09-28T15:11:23.569Z,5.80
2022-09-28T15:13:54.003Z,4.70
2022-09-28T15:16:24.439Z,11.07
2022-09-28T15:19:06.159Z,9.70
2022-09-28T15:21:36.621Z,4.80
2022-09-28T15:24:03.603Z,4.10
2022-09-28T15:26:32.795Z,3.67
2022-09-28T15:29:03.135Z,3.17
2022-09-28T15:31:35.072Z,4.67
2022-09-28T15:34:20.438Z,5.00
2022-09-28T15:36:47.563Z,4.87
2022-09-28T15:39:21.933Z,4.77
2022-09-28T15:41:50.813Z,3.10
2022-09-28T15:44:33.980Z,3.67
2022-09-28T15:47:27.973Z,6.80
2022-09-28T15:50:00.694Z,7.17
2022-09-28T15:52:35.336Z,7.70
2022-09-28T15:55:06.153Z,7.07
2022-09-28T15:57:39.116Z,6.57
2022-09-28T16:00:30.653Z,6.43
2022-09-28T16:03:01.940Z,10.30
2022-09-28T16:05:36.790Z,7.73
2022-09-28T16:08:05.411Z,6.50
2022-09-28T16:10:34.056Z,5.17
2022-09-28T16:13:17.829Z,3.77
2022-09-28T16:15:45.002Z,3.67
2022-09-28T16:18:20.439Z,13.63
2022-09-28T16:20:51.475Z,12.40
2022-09-28T16:23:31.538Z,12.67
2022-09-28T16:26:08.824Z,8.30
2022-09-28T16:28:38.559Z,6.67
2022-09-28T16:31:21.650Z,10.00
2022-09-28T16:33:59.025Z,11.03
2022-09-28T16:36:29.888Z,14.10
2022-09-28T16:38:56.683Z,17.00
2022-09-28T16:41:27.130Z,17.90
2022-09-28T16:43:59.720Z,19.73
2022-09-28T16:46:39.329Z,21.83
2022-09-28T16:49:07.003Z,19.73
2022-09-28T16:51:33.772Z,12.90
2022-09-28T16:54:32.755Z,8.70
2022-09-28T16:57:00.410Z,7.27
2022-09-28T16:59:28.397Z,6.23
2022-09-28T17:01:56.763Z,6.30
2022-09-28T17:04:27.023Z,5.77
2022-09-28T17:06:55.545Z,9.20
2022-09-28T17:09:23.010Z,8.80
2022-09-28T17:11:56.110Z,6.97
2022-09-28T17:14:24.003Z,7.00
2022-09-28T17:17:12.644Z,7.77
2022-09-28T17:19:40.984Z,8.43
2022-09-28T17:22:09.052Z,8.07
2022-09-28T17:24:36.134Z,7.40
2022-09-28T17:27:03.401Z,7.53
2022-09-28T17:29:30.899Z,9.37
2022-09-28T17:31:57.580Z,9.90
2022-09-28T17:34:24.275Z,11.63
2022-09-28T17:36:52.290Z,12.97
2022-09-28T17:39:19.269Z,12.83
2022-09-28T17:41:45.997Z,14.63
2022-09-28T17:44:16.050Z,17.97
2022-09-28T17:46:48.583Z,19.97
2022-09-28T17:49:16.429Z,21.07
2022-09-28T17:51:43.154Z,20.67
2022-09-28T17:54:10.312Z,19.57
2022-09-28T17:56:37.048Z,17.57
2022-09-28T17:59:06.309Z,14.83
2022-09-28T18:01:34.661Z,14.63
2022-09-28T18:04:06.597Z,14.27
2022-09-28T18:06:33.827Z,13.00
2022-09-28T18:09:02.937Z,13.20
2022-09-28T18:11:31.130Z,12.87
2022-09-28T18:13:58.164Z,14.47
2022-09-28T18:16:26.170Z,21.60
2022-09-28T18:18:52.941Z,40.70
2022-09-28T18:21:19.976Z,54.40
2022-09-28T18:23:46.785Z,67.50
2022-09-28T18:26:15.201Z,77.37
2022-09-28T18:28:42.690Z,89.27
2022-09-28T18:31:11.891Z,81.33
2022-09-28T18:33:38.772Z,77.97
2022-09-28T18:36:06.722Z,75.73
2022-09-28T18:38:37.364Z,64.27
2022-09-28T18:41:14.507Z,62.73
2022-09-28T18:43:42.517Z,57.30
2022-09-28T18:46:10.538Z,46.63
2022-09-28T18:48:40.635Z,37.17
2022-09-28T18:51:12.007Z,31.67
2022-09-28T18:53:39.668Z,33.47
2022-09-28T18:56:11.848Z,33.47
2022-09-28T18:58:40.263Z,36.37
2022-09-28T19:01:28.926Z,35.87
2022-09-28T19:03:58.124Z,37.87
2022-09-28T19:06:24.818Z,53.07
2022-09-28T19:08:53.263Z,67.40
2022-09-28T19:11:21.195Z,75.83
2022-09-28T19:13:48.134Z,81.97
2022-09-28T19:16:17.940Z,94.10
2022-09-28T19:18:45.044Z,99.47
2022-09-28T19:21:13.981Z,101.63
2022-09-28T19:23:44.775Z,103.07
2022-09-28T19:26:18.911Z,100.80
2022-09-28T19:28:45.645Z,95.03
2022-09-28T19:31:13.110Z,94.93
2022-09-28T19:33:40.600Z,87.63
2022-09-28T19:36:08.480Z,81.33
2022-09-28T19:38:37.357Z,72.27
2022-09-28T19:41:39.328Z,64.03
2022-09-28T19:44:27.660Z,49.93
2022-09-28T19:47:07.367Z,39.77
2022-09-28T19:49:39.027Z,25.30
2022-09-28T19:52:14.403Z,20.80
2022-09-28T19:54:44.543Z,17.53
2022-09-28T19:57:13.270Z,19.83
2022-09-28T19:59:40.057Z,18.53
2022-09-28T20:02:08.538Z,15.30
2022-09-28T20:04:35.351Z,15.97
2022-09-28T20:07:03.770Z,12.00
2022-09-28T20:09:31.277Z,14.20
2022-09-28T20:11:58.089Z,12.57
2022-09-28T20:14:28.153Z,11.97
2022-09-28T20:16:58.670Z,10.50
2022-09-28T20:19:26.209Z,12.30
2022-09-28T20:21:53.040Z,11.53
2022-09-28T20:24:19.805Z,13.50
2022-09-28T20:26:46.851Z,12.10
2022-09-28T20:29:13.641Z,12.23
2022-09-28T20:31:40.564Z,11.60
2022-09-28T20:34:07.711Z,9.23
2022-09-28T20:36:34.789Z,8.63
2022-09-28T20:39:02.345Z,10.70
2022-09-28T20:41:34.794Z,12.33
2022-09-28T20:44:05.274Z,9.90
2022-09-28T20:46:36.453Z,10.13
2022-09-28T20:49:04.512Z,9.70
2022-09-28T20:51:32.023Z,9.00
2022-09-28T20:53:59.437Z,10.00
2022-09-28T20:56:28.425Z,9.40
2022-09-28T20:58:55.872Z,8.83
2022-09-28T21:01:28.650Z,8.07
2022-09-28T21:04:00.461Z,7.93
2022-09-28T21:06:29.732Z,8.13
2022-09-28T21:08:56.594Z,7.30
2022-09-28T21:11:25.467Z,8.47
2022-09-28T21:13:54.066Z,7.57
2022-09-28T21:16:20.752Z,7.47
2022-09-28T21:18:47.825Z,8.03
2022-09-28T21:21:16.903Z,7.87
2022-09-28T21:23:46.638Z,6.97
2022-09-28T21:26:24.684Z,6.43
2022-09-28T21:28:53.495Z,7.53
2022-09-28T21:31:26.086Z,7.33
2022-09-28T21:33:55.274Z,6.80
2022-09-28T21:36:22.056Z,7.33
2022-09-28T21:38:49.365Z,6.77
2022-09-28T21:41:16.441Z,6.80
2022-09-28T21:43:43.176Z,6.93
2022-09-28T21:46:10.219Z,6.40
2022-09-28T21:48:37.321Z,6.47
2022-09-28T21:51:06.206Z,6.30
2022-09-28T21:53:35.096Z,5.43
2022-09-28T21:56:02.624Z,5.20
2022-09-28T21:58:31.589Z,5.30
2022-09-28T22:01:11.072Z,5.20
2022-09-28T22:03:37.781Z,5.47
2022-09-28T22:06:05.892Z,5.70
2022-09-28T22:08:33.854Z,6.93
2022-09-28T22:11:01.880Z,6.47
2022-09-28T22:13:40.563Z,6.33
2022-09-28T22:16:08.453Z,6.33
2022-09-28T22:18:35.640Z,6.33
2022-09-28T22:21:40.440Z,6.07
2022-09-28T22:24:07.776Z,6.17
2022-09-28T22:26:36.784Z,6.67
2022-09-28T22:29:06.927Z,6.40
2022-09-28T22:31:38.724Z,6.50
2022-09-28T22:34:06.369Z,7.10
2022-09-28T22:36:33.289Z,7.90
2022-09-28T22:39:00.484Z,7.73
2022-09-28T22:41:27.610Z,7.50
2022-09-28T22:43:54.823Z,7.70
2022-09-28T22:46:23.986Z,7.60
2022-09-28T22:48:54.184Z,8.70
2022-09-28T22:51:22.534Z,8.17
2022-09-28T22:53:49.387Z,8.50
2022-09-28T22:56:18.915Z,7.80
2022-09-28T22:58:46.460Z,8.40
2022-09-28T23:01:19.785Z,7.97
2022-09-28T23:03:47.690Z,7.63
2022-09-28T23:06:16.639Z,7.77
2022-09-28T23:08:44.790Z,8.73
2022-09-28T23:11:11.504Z,8.60
2022-09-28T23:13:38.446Z,8.63
2022-09-28T23:16:08.045Z,7.93
2022-09-28T23:18:36.965Z,9.10
2022-09-28T23:21:06.483Z,9.20
2022-09-28T23:23:34.225Z,8.27
2022-09-28T23:26:01.346Z,9.37
2022-09-28T23:28:28.092Z,9.07
2022-09-28T23:30:54.944Z,8.83
2022-09-28T23:33:22.337Z,9.27
2022-09-28T23:35:49.797Z,9.40
2022-09-28T23:38:18.229Z,9.03
2022-09-28T23:40:46.770Z,9.63
2022-09-28T23:43:14.618Z,9.53
2022-09-28T23:45:43.903Z,9.37
2022-09-28T23:48:10.641Z,10.03
2022-09-28T23:50:37.503Z,9.93
2022-09-28T23:53:04.380Z,9.10
2022-09-28T23:55:31.055Z,9.70
2022-09-28T23:57:58.768Z,9.80
